sensor_id;sensor_type;location;lat;lon;timestamp;P1;durP1;ratioP1;P2;durP2;ratioP2
18610;SDS011;9435;52.122;5.502;2023-01-09T00:00:26;3.88;;;1.30;;
18610;SDS011;9435;52.122;5.502;2023-01-09T00:02:53;4.28;;;1.38;;
18610;SDS011;9435;52.122;5.502;2023-01-09T00:05:21;3.70;;;1.30;;
18610;SDS011;9435;52.122;5.502;2023-01-09T00:07:48;5.10;;;1.40;;
18610;SDS011;9435;52.122;5.502;2023-01-09T00:10:15;2.17;;;1.20;;
18610;SDS011;9435;52.122;5.502;2023-01-09T00:12:42;3.60;;;1.27;;
18610;SDS011;9435;52.122;5.502;2023-01-09T00:15:09;2.00;;;1.20;;
18610;SDS011;9435;52.122;5.502;2023-01-09T00:17:39;4.68;;;1.40;;
18610;SDS011;9435;52.122;5.502;2023-01-09T00:20:06;5.43;;;1.55;;
18610;SDS011;9435;52.122;5.502;2023-01-09T00:22:35;5.03;;;1.50;;
18610;SDS011;9435;52.122;5.502;2023-01-09T00:25:02;3.88;;;1.52;;
18610;SDS011;9435;52.122;5.502;2023-01-09T00:27:30;5.65;;;1.60;;
18610;SDS011;9435;52.122;5.502;2023-01-09T00:29:57;3.97;;;1.33;;
18610;SDS011;9435;52.122;5.502;2023-01-09T00:32:25;4.50;;;1.42;;
18610;SDS011;9435;52.122;5.502;2023-01-09T00:34:54;5.25;;;1.65;;
18610;SDS011;9435;52.122;5.502;2023-01-09T00:37:21;4.43;;;1.60;;
18610;SDS011;9435;52.122;5.502;2023-01-09T00:39:48;4.88;;;1.40;;
18610;SDS011;9435;52.122;5.502;2023-01-09T00:42:16;4.35;;;1.50;;
18610;SDS011;9435;52.122;5.502;2023-01-09T00:44:46;4.97;;;1.60;;
18610;SDS011;9435;52.122;5.502;2023-01-09T00:47:17;4.22;;;1.90;;
18610;SDS011;9435;52.122;5.502;2023-01-09T00:49:47;5.93;;;1.80;;
18610;SDS011;9435;52.122;5.502;2023-01-09T00:52:17;4.63;;;1.80;;
18610;SDS011;9435;52.122;5.502;2023-01-09T00:54:45;5.82;;;1.55;;
18610;SDS011;9435;52.122;5.502;2023-01-09T00:57:13;3.92;;;1.67;;
18610;SDS011;9435;52.122;5.502;2023-01-09T00:59:40;6.18;;;1.85;;
18610;SDS011;9435;52.122;5.502;2023-01-09T01:02:08;6.60;;;2.53;;
18610;SDS011;9435;52.122;5.502;2023-01-09T01:04:35;3.95;;;1.80;;
18610;SDS011;9435;52.122;5.502;2023-01-09T01:07:21;4.00;;;1.58;;
18610;SDS011;9435;52.122;5.502;2023-01-09T01:10:04;4.55;;;1.77;;
18610;SDS011;9435;52.122;5.502;2023-01-09T01:12:32;4.22;;;2.05;;
18610;SDS011;9435;52.122;5.502;2023-01-09T01:14:59;6.90;;;1.67;;
18610;SDS011;9435;52.122;5.502;2023-01-09T01:17:27;5.25;;;1.88;;
18610;SDS011;9435;52.122;5.502;2023-01-09T01:19:54;4.25;;;1.90;;
18610;SDS011;9435;52.122;5.502;2023-01-09T01:22:22;4.18;;;1.90;;
18610;SDS011;9435;52.122;5.502;2023-01-09T01:24:49;8.07;;;2.20;;
18610;SDS011;9435;52.122;5.502;2023-01-09T01:27:16;5.88;;;2.08;;
18610;SDS011;9435;52.122;5.502;2023-01-09T01:29:43;4.03;;;2.10;;
18610;SDS011;9435;52.122;5.502;2023-01-09T01:32:10;5.57;;;2.22;;
18610;SDS011;9435;52.122;5.502;2023-01-09T01:34:37;7.40;;;2.45;;
18610;SDS011;9435;52.122;5.502;2023-01-09T01:37:04;5.03;;;2.50;;
18610;SDS011;9435;52.122;5.502;2023-01-09T01:39:33;7.93;;;2.75;;
18610;SDS011;9435;52.122;5.502;2023-01-09T01:42:01;6.75;;;2.45;;
18610;SDS011;9435;52.122;5.502;2023-01-09T01:47:24;7.20;;;3.30;;
18610;SDS011;9435;52.122;5.502;2023-01-09T01:49:54;5.00;;;2.92;;
18610;SDS011;9435;52.122;5.502;2023-01-09T01:52:22;7.47;;;2.90;;
18610;SDS011;9435;52.122;5.502;2023-01-09T01:54:51;7.82;;;3.08;;
18610;SDS011;9435;52.122;5.502;2023-01-09T01:57:18;7.50;;;2.95;;
18610;SDS011;9435;52.122;5.502;2023-01-09T01:59:46;7.68;;;2.90;;
18610;SDS011;9435;52.122;5.502;2023-01-09T02:02:19;5.93;;;3.17;;
18610;SDS011;9435;52.122;5.502;2023-01-09T02:04:50;4.68;;;3.08;;
18610;SDS011;9435;52.122;5.502;2023-01-09T02:07:19;8.35;;;3.60;;
18610;SDS011;9435;52.122;5.502;2023-01-09T02:09:46;7.95;;;3.72;;
18610;SDS011;9435;52.122;5.502;2023-01-09T02:12:18;10.35;;;4.20;;
18610;SDS011;9435;52.122;5.502;2023-01-09T02:14:48;7.85;;;4.45;;
18610;SDS011;9435;52.122;5.502;2023-01-09T02:17:19;8.38;;;4.43;;
18610;SDS011;9435;52.122;5.502;2023-01-09T02:20:14;9.70;;;4.68;;
18610;SDS011;9435;52.122;5.502;2023-01-09T02:22:59;10.02;;;4.47;;
18610;SDS011;9435;52.122;5.502;2023-01-09T02:25:49;10.38;;;5.40;;
18610;SDS011;9435;52.122;5.502;2023-01-09T02:28:50;10.52;;;5.68;;
18610;SDS011;9435;52.122;5.502;2023-01-09T02:31:43;10.52;;;5.82;;
18610;SDS011;9435;52.122;5.502;2023-01-09T02:34:21;10.25;;;6.05;;
18610;SDS011;9435;52.122;5.502;2023-01-09T02:36:54;14.82;;;6.00;;
18610;SDS011;9435;52.122;5.502;2023-01-09T02:39:32;12.13;;;6.05;;
18610;SDS011;9435;52.122;5.502;2023-01-09T02:42:07;13.13;;;6.03;;
18610;SDS011;9435;52.122;5.502;2023-01-09T02:44:40;11.75;;;5.72;;
18610;SDS011;9435;52.122;5.502;2023-01-09T02:50:03;13.25;;;6.20;;
18610;SDS011;9435;52.122;5.502;2023-01-09T02:52:35;14.25;;;5.75;;
18610;SDS011;9435;52.122;5.502;2023-01-09T02:55:25;11.07;;;5.70;;
18610;SDS011;9435;52.122;5.502;2023-01-09T02:58:15;11.88;;;5.97;;
18610;SDS011;9435;52.122;5.502;2023-01-09T03:00:54;10.88;;;5.55;;
18610;SDS011;9435;52.122;5.502;2023-01-09T03:03:30;10.65;;;5.10;;
18610;SDS011;9435;52.122;5.502;2023-01-09T03:06:04;13.20;;;5.22;;
18610;SDS011;9435;52.122;5.502;2023-01-09T03:08:37;14.77;;;5.38;;
18610;SDS011;9435;52.122;5.502;2023-01-09T03:11:09;11.65;;;5.15;;
18610;SDS011;9435;52.122;5.502;2023-01-09T03:13:38;13.02;;;5.30;;
18610;SDS011;9435;52.122;5.502;2023-01-09T03:16:10;9.88;;;4.78;;
18610;SDS011;9435;52.122;5.502;2023-01-09T03:18:43;12.77;;;5.47;;
18610;SDS011;9435;52.122;5.502;2023-01-09T03:21:12;11.20;;;5.25;;
18610;SDS011;9435;52.122;5.502;2023-01-09T03:23:50;11.45;;;5.25;;
18610;SDS011;9435;52.122;5.502;2023-01-09T03:26:19;13.13;;;5.22;;
18610;SDS011;9435;52.122;5.502;2023-01-09T03:28:47;12.48;;;4.88;;
18610;SDS011;9435;52.122;5.502;2023-01-09T03:31:15;12.13;;;4.63;;
18610;SDS011;9435;52.122;5.502;2023-01-09T03:33:43;13.00;;;4.97;;
18610;SDS011;9435;52.122;5.502;2023-01-09T03:36:11;11.18;;;5.07;;
18610;SDS011;9435;52.122;5.502;2023-01-09T03:38:39;11.65;;;4.85;;
18610;SDS011;9435;52.122;5.502;2023-01-09T03:41:06;10.05;;;4.60;;
18610;SDS011;9435;52.122;5.502;2023-01-09T03:43:33;11.00;;;4.95;;
18610;SDS011;9435;52.122;5.502;2023-01-09T03:46:01;9.30;;;4.43;;
18610;SDS011;9435;52.122;5.502;2023-01-09T03:48:28;13.68;;;5.00;;
18610;SDS011;9435;52.122;5.502;2023-01-09T03:50:57;15.05;;;4.75;;
18610;SDS011;9435;52.122;5.502;2023-01-09T03:53:25;9.38;;;4.20;;
18610;SDS011;9435;52.122;5.502;2023-01-09T03:55:53;12.18;;;4.55;;
18610;SDS011;9435;52.122;5.502;2023-01-09T03:58:23;13.55;;;4.60;;
18610;SDS011;9435;52.122;5.502;2023-01-09T04:00:51;11.73;;;4.30;;
18610;SDS011;9435;52.122;5.502;2023-01-09T04:03:23;15.25;;;5.10;;
18610;SDS011;9435;52.122;5.502;2023-01-09T04:05:50;10.85;;;4.28;;
18610;SDS011;9435;52.122;5.502;2023-01-09T04:08:18;8.70;;;3.80;;
18610;SDS011;9435;52.122;5.502;2023-01-09T04:10:46;10.85;;;4.13;;
18610;SDS011;9435;52.122;5.502;2023-01-09T04:13:13;10.30;;;4.38;;
18610;SDS011;9435;52.122;5.502;2023-01-09T04:15:40;10.52;;;4.13;;
18610;SDS011;9435;52.122;5.502;2023-01-09T04:18:08;9.80;;;4.10;;
18610;SDS011;9435;52.122;5.502;2023-01-09T04:20:35;11.38;;;4.20;;
18610;SDS011;9435;52.122;5.502;2023-01-09T04:23:02;9.20;;;3.80;;
18610;SDS011;9435;52.122;5.502;2023-01-09T04:25:30;13.82;;;3.72;;
18610;SDS011;9435;52.122;5.502;2023-01-09T04:27:57;10.20;;;3.63;;
18610;SDS011;9435;52.122;5.502;2023-01-09T04:30:25;12.25;;;3.22;;
18610;SDS011;9435;52.122;5.502;2023-01-09T04:32:52;10.48;;;3.42;;
18610;SDS011;9435;52.122;5.502;2023-01-09T04:35:19;12.02;;;3.25;;
18610;SDS011;9435;52.122;5.502;2023-01-09T04:37:46;12.77;;;3.28;;
18610;SDS011;9435;52.122;5.502;2023-01-09T04:40:13;10.30;;;3.20;;
18610;SDS011;9435;52.122;5.502;2023-01-09T04:42:45;9.55;;;3.00;;
18610;SDS011;9435;52.122;5.502;2023-01-09T04:45:12;8.93;;;2.95;;
18610;SDS011;9435;52.122;5.502;2023-01-09T04:47:41;9.13;;;2.97;;
18610;SDS011;9435;52.122;5.502;2023-01-09T04:50:10;7.85;;;2.58;;
18610;SDS011;9435;52.122;5.502;2023-01-09T04:52:37;9.60;;;2.80;;
18610;SDS011;9435;52.122;5.502;2023-01-09T04:55:05;10.63;;;3.17;;
18610;SDS011;9435;52.122;5.502;2023-01-09T04:57:33;10.77;;;3.28;;
18610;SDS011;9435;52.122;5.502;2023-01-09T05:00:02;7.75;;;2.92;;
18610;SDS011;9435;52.122;5.502;2023-01-09T05:02:33;14.43;;;3.42;;
18610;SDS011;9435;52.122;5.502;2023-01-09T05:05:01;8.88;;;3.05;;
18610;SDS011;9435;52.122;5.502;2023-01-09T05:07:28;9.70;;;3.28;;
18610;SDS011;9435;52.122;5.502;2023-01-09T05:09:55;12.90;;;3.08;;
18610;SDS011;9435;52.122;5.502;2023-01-09T05:12:22;8.10;;;3.00;;
18610;SDS011;9435;52.122;5.502;2023-01-09T05:14:49;11.95;;;3.05;;
18610;SDS011;9435;52.122;5.502;2023-01-09T05:17:18;5.85;;;2.70;;
18610;SDS011;9435;52.122;5.502;2023-01-09T05:19:45;11.35;;;2.92;;
18610;SDS011;9435;52.122;5.502;2023-01-09T05:22:12;9.63;;;3.10;;
18610;SDS011;9435;52.122;5.502;2023-01-09T05:24:39;10.07;;;3.13;;
18610;SDS011;9435;52.122;5.502;2023-01-09T05:27:06;10.15;;;3.00;;
18610;SDS011;9435;52.122;5.502;2023-01-09T05:29:33;10.70;;;3.33;;
18610;SDS011;9435;52.122;5.502;2023-01-09T05:32:00;10.40;;;3.38;;
18610;SDS011;9435;52.122;5.502;2023-01-09T05:34:29;10.75;;;3.63;;
18610;SDS011;9435;52.122;5.502;2023-01-09T05:36:56;9.13;;;3.40;;
18610;SDS011;9435;52.122;5.502;2023-01-09T05:39:23;7.78;;;3.05;;
18610;SDS011;9435;52.122;5.502;2023-01-09T05:41:50;11.18;;;3.60;;
18610;SDS011;9435;52.122;5.502;2023-01-09T05:44:17;8.18;;;2.95;;
18610;SDS011;9435;52.122;5.502;2023-01-09T05:46:44;11.70;;;3.25;;
18610;SDS011;9435;52.122;5.502;2023-01-09T05:49:11;11.25;;;3.30;;
18610;SDS011;9435;52.122;5.502;2023-01-09T05:51:40;11.63;;;3.17;;
18610;SDS011;9435;52.122;5.502;2023-01-09T05:54:07;12.63;;;2.90;;
18610;SDS011;9435;52.122;5.502;2023-01-09T05:56:34;12.30;;;3.13;;
18610;SDS011;9435;52.122;5.502;2023-01-09T05:59:01;8.50;;;3.13;;
18610;SDS011;9435;52.122;5.502;2023-01-09T06:01:28;7.75;;;2.92;;
18610;SDS011;9435;52.122;5.502;2023-01-09T06:03:56;11.75;;;2.97;;
18610;SDS011;9435;52.122;5.502;2023-01-09T06:06:23;8.45;;;3.17;;
18610;SDS011;9435;52.122;5.502;2023-01-09T06:08:51;10.50;;;2.90;;
18610;SDS011;9435;52.122;5.502;2023-01-09T06:11:18;9.85;;;2.80;;
18610;SDS011;9435;52.122;5.502;2023-01-09T06:13:45;11.25;;;2.80;;
18610;SDS011;9435;52.122;5.502;2023-01-09T06:16:12;10.13;;;3.25;;
18610;SDS011;9435;52.122;5.502;2023-01-09T06:18:40;16.20;;;6.70;;
18610;SDS011;9435;52.122;5.502;2023-01-09T06:21:07;13.93;;;3.22;;
18610;SDS011;9435;52.122;5.502;2023-01-09T06:23:34;12.50;;;3.17;;
18610;SDS011;9435;52.122;5.502;2023-01-09T06:26:02;8.98;;;2.88;;
18610;SDS011;9435;52.122;5.502;2023-01-09T06:28:29;10.90;;;2.80;;
18610;SDS011;9435;52.122;5.502;2023-01-09T06:30:57;11.63;;;3.30;;
18610;SDS011;9435;52.122;5.502;2023-01-09T06:33:26;14.25;;;4.10;;
18610;SDS011;9435;52.122;5.502;2023-01-09T06:35:53;13.20;;;3.88;;
18610;SDS011;9435;52.122;5.502;2023-01-09T06:38:25;10.55;;;3.22;;
18610;SDS011;9435;52.122;5.502;2023-01-09T06:40:55;10.38;;;3.20;;
18610;SDS011;9435;52.122;5.502;2023-01-09T06:43:24;12.63;;;3.08;;
18610;SDS011;9435;52.122;5.502;2023-01-09T06:45:51;11.23;;;3.33;;
18610;SDS011;9435;52.122;5.502;2023-01-09T06:48:18;9.75;;;2.95;;
18610;SDS011;9435;52.122;5.502;2023-01-09T06:50:46;13.20;;;3.30;;
18610;SDS011;9435;52.122;5.502;2023-01-09T06:53:13;11.88;;;2.72;;
18610;SDS011;9435;52.122;5.502;2023-01-09T06:55:40;11.27;;;2.70;;
18610;SDS011;9435;52.122;5.502;2023-01-09T06:58:09;11.80;;;3.50;;
18610;SDS011;9435;52.122;5.502;2023-01-09T07:00:37;8.15;;;2.58;;
18610;SDS011;9435;52.122;5.502;2023-01-09T07:03:04;10.80;;;2.97;;
18610;SDS011;9435;52.122;5.502;2023-01-09T07:05:32;12.75;;;2.95;;
18610;SDS011;9435;52.122;5.502;2023-01-09T07:08:03;15.40;;;3.03;;
18610;SDS011;9435;52.122;5.502;2023-01-09T07:10:30;14.40;;;2.80;;
18610;SDS011;9435;52.122;5.502;2023-01-09T07:12:57;10.57;;;3.10;;
18610;SDS011;9435;52.122;5.502;2023-01-09T07:15:24;11.15;;;3.15;;
18610;SDS011;9435;52.122;5.502;2023-01-09T07:17:53;12.05;;;3.08;;
18610;SDS011;9435;52.122;5.502;2023-01-09T07:20:20;8.75;;;3.17;;
18610;SDS011;9435;52.122;5.502;2023-01-09T07:22:47;12.55;;;3.45;;
18610;SDS011;9435;52.122;5.502;2023-01-09T07:25:14;11.40;;;3.40;;
18610;SDS011;9435;52.122;5.502;2023-01-09T07:27:41;14.73;;;3.22;;
18610;SDS011;9435;52.122;5.502;2023-01-09T07:30:09;13.43;;;3.63;;
18610;SDS011;9435;52.122;5.502;2023-01-09T07:32:37;14.95;;;3.38;;
18610;SDS011;9435;52.122;5.502;2023-01-09T07:35:07;17.35;;;3.60;;
18610;SDS011;9435;52.122;5.502;2023-01-09T07:37:35;14.50;;;3.38;;
18610;SDS011;9435;52.122;5.502;2023-01-09T07:40:02;10.07;;;3.17;;
18610;SDS011;9435;52.122;5.502;2023-01-09T07:42:30;10.82;;;3.42;;
18610;SDS011;9435;52.122;5.502;2023-01-09T07:44:57;13.07;;;3.67;;
18610;SDS011;9435;52.122;5.502;2023-01-09T07:47:24;15.07;;;3.75;;
18610;SDS011;9435;52.122;5.502;2023-01-09T07:49:51;11.27;;;3.25;;
18610;SDS011;9435;52.122;5.502;2023-01-09T07:52:20;12.68;;;3.67;;
18610;SDS011;9435;52.122;5.502;2023-01-09T07:54:47;14.02;;;4.30;;
18610;SDS011;9435;52.122;5.502;2023-01-09T07:57:14;13.23;;;3.95;;
18610;SDS011;9435;52.122;5.502;2023-01-09T07:59:41;9.75;;;4.25;;
18610;SDS011;9435;52.122;5.502;2023-01-09T08:02:08;11.23;;;5.07;;
18610;SDS011;9435;52.122;5.502;2023-01-09T08:04:36;12.77;;;5.20;;
18610;SDS011;9435;52.122;5.502;2023-01-09T08:07:03;13.30;;;5.32;;
18610;SDS011;9435;52.122;5.502;2023-01-09T08:09:31;13.95;;;5.20;;
18610;SDS011;9435;52.122;5.502;2023-01-09T08:11:58;12.63;;;5.40;;
18610;SDS011;9435;52.122;5.502;2023-01-09T08:14:26;11.93;;;5.25;;
18610;SDS011;9435;52.122;5.502;2023-01-09T08:16:53;10.20;;;4.25;;
18610;SDS011;9435;52.122;5.502;2023-01-09T08:19:20;8.75;;;3.85;;
18610;SDS011;9435;52.122;5.502;2023-01-09T08:21:48;6.45;;;3.15;;
18610;SDS011;9435;52.122;5.502;2023-01-09T08:24:15;5.15;;;2.75;;
18610;SDS011;9435;52.122;5.502;2023-01-09T08:26:43;5.82;;;2.20;;
18610;SDS011;9435;52.122;5.502;2023-01-09T08:29:10;5.38;;;1.90;;
18610;SDS011;9435;52.122;5.502;2023-01-09T08:31:37;4.53;;;1.60;;
18610;SDS011;9435;52.122;5.502;2023-01-09T08:34:05;5.88;;;1.83;;
18610;SDS011;9435;52.122;5.502;2023-01-09T08:36:32;5.70;;;1.90;;
18610;SDS011;9435;52.122;5.502;2023-01-09T08:38:59;7.00;;;2.28;;
18610;SDS011;9435;52.122;5.502;2023-01-09T08:41:26;6.47;;;2.35;;
18610;SDS011;9435;52.122;5.502;2023-01-09T08:44:11;6.60;;;2.15;;
18610;SDS011;9435;52.122;5.502;2023-01-09T08:46:56;8.88;;;2.80;;
18610;SDS011;9435;52.122;5.502;2023-01-09T08:49:32;10.30;;;3.20;;
18610;SDS011;9435;52.122;5.502;2023-01-09T08:52:00;12.85;;;3.20;;
18610;SDS011;9435;52.122;5.502;2023-01-09T08:54:27;8.07;;;3.30;;
18610;SDS011;9435;52.122;5.502;2023-01-09T08:56:54;11.32;;;3.60;;
18610;SDS011;9435;52.122;5.502;2023-01-09T08:59:23;11.70;;;3.67;;
18610;SDS011;9435;52.122;5.502;2023-01-09T09:01:50;9.23;;;3.40;;
18610;SDS011;9435;52.122;5.502;2023-01-09T09:04:17;7.72;;;3.30;;
18610;SDS011;9435;52.122;5.502;2023-01-09T09:06:44;8.27;;;3.60;;
18610;SDS011;9435;52.122;5.502;2023-01-09T09:09:11;11.40;;;4.05;;
18610;SDS011;9435;52.122;5.502;2023-01-09T09:11:39;12.13;;;4.30;;
18610;SDS011;9435;52.122;5.502;2023-01-09T09:14:06;10.35;;;4.75;;
18610;SDS011;9435;52.122;5.502;2023-01-09T09:16:48;10.95;;;4.68;;
18610;SDS011;9435;52.122;5.502;2023-01-09T09:19:15;10.90;;;4.80;;
18610;SDS011;9435;52.122;5.502;2023-01-09T09:21:42;11.05;;;4.00;;
18610;SDS011;9435;52.122;5.502;2023-01-09T09:24:10;10.70;;;4.63;;
18610;SDS011;9435;52.122;5.502;2023-01-09T09:26:37;11.25;;;4.53;;
18610;SDS011;9435;52.122;5.502;2023-01-09T09:29:04;12.65;;;4.75;;
18610;SDS011;9435;52.122;5.502;2023-01-09T09:31:31;10.60;;;4.50;;
18610;SDS011;9435;52.122;5.502;2023-01-09T09:33:59;14.90;;;4.80;;
18610;SDS011;9435;52.122;5.502;2023-01-09T09:36:27;12.73;;;3.70;;
18610;SDS011;9435;52.122;5.502;2023-01-09T09:38:54;10.52;;;4.18;;
18610;SDS011;9435;52.122;5.502;2023-01-09T09:41:25;10.10;;;4.00;;
18610;SDS011;9435;52.122;5.502;2023-01-09T09:44:39;16.10;;;3.60;;
18610;SDS011;9435;52.122;5.502;2023-01-09T09:47:26;9.65;;;3.30;;
18610;SDS011;9435;52.122;5.502;2023-01-09T09:50:09;7.95;;;2.80;;
18610;SDS011;9435;52.122;5.502;2023-01-09T09:52:48;12.18;;;3.17;;
18610;SDS011;9435;52.122;5.502;2023-01-09T09:55:23;11.82;;;3.03;;
18610;SDS011;9435;52.122;5.502;2023-01-09T09:57:53;10.88;;;2.53;;
18610;SDS011;9435;52.122;5.502;2023-01-09T10:00:23;14.30;;;2.13;;
18610;SDS011;9435;52.122;5.502;2023-01-09T10:02:51;11.52;;;2.03;;
18610;SDS011;9435;52.122;5.502;2023-01-09T10:05:23;9.13;;;1.65;;
18610;SDS011;9435;52.122;5.502;2023-01-09T10:07:54;10.43;;;1.35;;
18610;SDS011;9435;52.122;5.502;2023-01-09T10:10:28;6.55;;;1.33;;
18610;SDS011;9435;52.122;5.502;2023-01-09T10:13:01;8.43;;;1.20;;
18610;SDS011;9435;52.122;5.502;2023-01-09T10:15:50;8.35;;;1.23;;
18610;SDS011;9435;52.122;5.502;2023-01-09T10:18:26;10.43;;;1.30;;
18610;SDS011;9435;52.122;5.502;2023-01-09T10:21:01;6.88;;;1.17;;
18610;SDS011;9435;52.122;5.502;2023-01-09T10:23:42;12.38;;;1.33;;
18610;SDS011;9435;52.122;5.502;2023-01-09T10:26:24;9.88;;;1.50;;
18610;SDS011;9435;52.122;5.502;2023-01-09T10:32:03;13.85;;;1.80;;
18610;SDS011;9435;52.122;5.502;2023-01-09T10:34:55;14.55;;;2.00;;
18610;SDS011;9435;52.122;5.502;2023-01-09T10:37:33;19.88;;;2.10;;
18610;SDS011;9435;52.122;5.502;2023-01-09T10:40:04;20.48;;;2.53;;
18610;SDS011;9435;52.122;5.502;2023-01-09T10:42:40;11.50;;;2.00;;
18610;SDS011;9435;52.122;5.502;2023-01-09T10:45:14;19.40;;;2.72;;
18610;SDS011;9435;52.122;5.502;2023-01-09T10:47:45;13.15;;;1.70;;
18610;SDS011;9435;52.122;5.502;2023-01-09T10:50:16;12.77;;;1.95;;
18610;SDS011;9435;52.122;5.502;2023-01-09T10:52:47;12.18;;;1.67;;
18610;SDS011;9435;52.122;5.502;2023-01-09T10:55:16;7.78;;;1.20;;
18610;SDS011;9435;52.122;5.502;2023-01-09T10:57:45;9.75;;;1.20;;
18610;SDS011;9435;52.122;5.502;2023-01-09T11:00:16;9.45;;;1.30;;
18610;SDS011;9435;52.122;5.502;2023-01-09T11:02:45;8.90;;;1.20;;
18610;SDS011;9435;52.122;5.502;2023-01-09T11:05:14;11.18;;;1.63;;
18610;SDS011;9435;52.122;5.502;2023-01-09T11:07:48;7.60;;;1.40;;
18610;SDS011;9435;52.122;5.502;2023-01-09T11:10:18;9.90;;;1.25;;
18610;SDS011;9435;52.122;5.502;2023-01-09T11:12:45;5.97;;;1.20;;
18610;SDS011;9435;52.122;5.502;2023-01-09T11:15:23;6.68;;;1.23;;
18610;SDS011;9435;52.122;5.502;2023-01-09T11:18:14;12.60;;;1.65;;
18610;SDS011;9435;52.122;5.502;2023-01-09T11:20:43;9.20;;;1.67;;
18610;SDS011;9435;52.122;5.502;2023-01-09T11:23:37;7.13;;;1.45;;
18610;SDS011;9435;52.122;5.502;2023-01-09T11:26:05;8.50;;;1.58;;
18610;SDS011;9435;52.122;5.502;2023-01-09T11:28:49;11.30;;;1.48;;
18610;SDS011;9435;52.122;5.502;2023-01-09T11:31:32;8.50;;;1.40;;
18610;SDS011;9435;52.122;5.502;2023-01-09T11:33:59;11.25;;;1.58;;
18610;SDS011;9435;52.122;5.502;2023-01-09T11:36:26;10.40;;;1.35;;
18610;SDS011;9435;52.122;5.502;2023-01-09T11:38:56;9.70;;;1.42;;
18610;SDS011;9435;52.122;5.502;2023-01-09T11:41:24;8.73;;;1.58;;
18610;SDS011;9435;52.122;5.502;2023-01-09T11:43:55;9.05;;;1.75;;
18610;SDS011;9435;52.122;5.502;2023-01-09T11:46:32;10.70;;;1.83;;
18610;SDS011;9435;52.122;5.502;2023-01-09T11:49:02;13.55;;;2.10;;
18610;SDS011;9435;52.122;5.502;2023-01-09T11:51:31;8.15;;;1.45;;
18610;SDS011;9435;52.122;5.502;2023-01-09T11:54:04;12.18;;;1.98;;
18610;SDS011;9435;52.122;5.502;2023-01-09T11:56:40;10.30;;;1.70;;
18610;SDS011;9435;52.122;5.502;2023-01-09T11:59:08;15.00;;;1.98;;
18610;SDS011;9435;52.122;5.502;2023-01-09T12:04:46;9.40;;;1.80;;
18610;SDS011;9435;52.122;5.502;2023-01-09T12:07:24;14.32;;;2.30;;
18610;SDS011;9435;52.122;5.502;2023-01-09T12:10:20;14.45;;;2.20;;
18610;SDS011;9435;52.122;5.502;2023-01-09T12:13:00;12.30;;;1.85;;
18610;SDS011;9435;52.122;5.502;2023-01-09T12:15:35;15.52;;;2.17;;
18610;SDS011;9435;52.122;5.502;2023-01-09T12:18:23;10.23;;;2.10;;
18610;SDS011;9435;52.122;5.502;2023-01-09T12:24:16;15.20;;;2.42;;
18610;SDS011;9435;52.122;5.502;2023-01-09T12:27:00;15.25;;;2.30;;
18610;SDS011;9435;52.122;5.502;2023-01-09T12:29:44;16.25;;;2.20;;
18610;SDS011;9435;52.122;5.502;2023-01-09T12:32:26;10.57;;;2.15;;
18610;SDS011;9435;52.122;5.502;2023-01-09T12:35:11;11.65;;;2.05;;
18610;SDS011;9435;52.122;5.502;2023-01-09T12:37:52;10.98;;;2.20;;
18610;SDS011;9435;52.122;5.502;2023-01-09T12:40:50;13.70;;;2.28;;
18610;SDS011;9435;52.122;5.502;2023-01-09T12:43:32;16.20;;;2.08;;
18610;SDS011;9435;52.122;5.502;2023-01-09T12:46:10;7.18;;;2.00;;
18610;SDS011;9435;52.122;5.502;2023-01-09T12:48:58;7.47;;;1.55;;
18610;SDS011;9435;52.122;5.502;2023-01-09T12:51:43;5.15;;;1.20;;
18610;SDS011;9435;52.122;5.502;2023-01-09T12:54:15;6.75;;;1.38;;
18610;SDS011;9435;52.122;5.502;2023-01-09T12:56:48;6.55;;;1.52;;
18610;SDS011;9435;52.122;5.502;2023-01-09T12:59:23;8.77;;;1.70;;
18610;SDS011;9435;52.122;5.502;2023-01-09T13:01:57;7.40;;;1.80;;
18610;SDS011;9435;52.122;5.502;2023-01-09T13:04:29;9.40;;;2.10;;
18610;SDS011;9435;52.122;5.502;2023-01-09T13:07:00;9.70;;;2.00;;
18610;SDS011;9435;52.122;5.502;2023-01-09T13:09:35;10.25;;;2.38;;
18610;SDS011;9435;52.122;5.502;2023-01-09T13:12:06;11.77;;;2.78;;
18610;SDS011;9435;52.122;5.502;2023-01-09T13:14:46;11.60;;;2.50;;
18610;SDS011;9435;52.122;5.502;2023-01-09T13:17:18;16.27;;;2.85;;
18610;SDS011;9435;52.122;5.502;2023-01-09T13:19:50;16.83;;;3.40;;
18610;SDS011;9435;52.122;5.502;2023-01-09T13:22:18;15.05;;;3.13;;
18610;SDS011;9435;52.122;5.502;2023-01-09T13:24:53;16.67;;;2.78;;
18610;SDS011;9435;52.122;5.502;2023-01-09T13:27:45;15.95;;;2.83;;
18610;SDS011;9435;52.122;5.502;2023-01-09T13:30:23;16.90;;;3.00;;
18610;SDS011;9435;52.122;5.502;2023-01-09T13:33:04;18.77;;;2.83;;
18610;SDS011;9435;52.122;5.502;2023-01-09T13:35:46;14.00;;;2.75;;
18610;SDS011;9435;52.122;5.502;2023-01-09T13:38:16;14.25;;;2.58;;
18610;SDS011;9435;52.122;5.502;2023-01-09T13:40:45;16.95;;;2.45;;
18610;SDS011;9435;52.122;5.502;2023-01-09T13:43:12;12.95;;;2.67;;
18610;SDS011;9435;52.122;5.502;2023-01-09T13:45:40;16.30;;;1.98;;
18610;SDS011;9435;52.122;5.502;2023-01-09T13:48:25;13.18;;;2.53;;
18610;SDS011;9435;52.122;5.502;2023-01-09T13:54:03;11.48;;;2.00;;
18610;SDS011;9435;52.122;5.502;2023-01-09T13:56:42;14.52;;;2.17;;
18610;SDS011;9435;52.122;5.502;2023-01-09T13:59:50;15.70;;;2.30;;
18610;SDS011;9435;52.122;5.502;2023-01-09T14:06:00;16.45;;;2.40;;
18610;SDS011;9435;52.122;5.502;2023-01-09T14:08:26;10.32;;;2.20;;
18610;SDS011;9435;52.122;5.502;2023-01-09T14:10:55;12.95;;;2.30;;
18610;SDS011;9435;52.122;5.502;2023-01-09T14:13:25;13.10;;;2.40;;
18610;SDS011;9435;52.122;5.502;2023-01-09T14:16:00;18.50;;;1.95;;
18610;SDS011;9435;52.122;5.502;2023-01-09T14:18:30;17.02;;;2.55;;
18610;SDS011;9435;52.122;5.502;2023-01-09T14:20:59;14.15;;;1.80;;
18610;SDS011;9435;52.122;5.502;2023-01-09T14:23:31;14.45;;;2.55;;
18610;SDS011;9435;52.122;5.502;2023-01-09T14:26:00;14.20;;;2.20;;
18610;SDS011;9435;52.122;5.502;2023-01-09T14:28:29;18.42;;;2.22;;
18610;SDS011;9435;52.122;5.502;2023-01-09T14:31:07;18.52;;;2.20;;
18610;SDS011;9435;52.122;5.502;2023-01-09T14:33:36;13.18;;;2.00;;
18610;SDS011;9435;52.122;5.502;2023-01-09T14:36:13;17.88;;;2.05;;
18610;SDS011;9435;52.122;5.502;2023-01-09T14:38:47;13.50;;;1.98;;
18610;SDS011;9435;52.122;5.502;2023-01-09T14:41:17;16.15;;;2.33;;
18610;SDS011;9435;52.122;5.502;2023-01-09T14:44:12;14.23;;;2.10;;
18610;SDS011;9435;52.122;5.502;2023-01-09T14:46:51;11.02;;;2.00;;
18610;SDS011;9435;52.122;5.502;2023-01-09T14:49:21;12.00;;;2.08;;
18610;SDS011;9435;52.122;5.502;2023-01-09T14:51:55;14.27;;;1.80;;
18610;SDS011;9435;52.122;5.502;2023-01-09T14:54:28;14.68;;;2.08;;
18610;SDS011;9435;52.122;5.502;2023-01-09T14:56:59;16.80;;;2.08;;
18610;SDS011;9435;52.122;5.502;2023-01-09T14:59:26;23.58;;;2.35;;
18610;SDS011;9435;52.122;5.502;2023-01-09T15:01:54;11.52;;;1.92;;
18610;SDS011;9435;52.122;5.502;2023-01-09T15:04:25;14.48;;;2.10;;
18610;SDS011;9435;52.122;5.502;2023-01-09T15:06:55;14.00;;;1.88;;
18610;SDS011;9435;52.122;5.502;2023-01-09T15:09:24;10.95;;;1.90;;
18610;SDS011;9435;52.122;5.502;2023-01-09T15:11:55;12.57;;;2.05;;
18610;SDS011;9435;52.122;5.502;2023-01-09T15:14:30;15.10;;;1.98;;
18610;SDS011;9435;52.122;5.502;2023-01-09T15:17:00;14.13;;;1.90;;
18610;SDS011;9435;52.122;5.502;2023-01-09T15:19:29;13.45;;;1.73;;
18610;SDS011;9435;52.122;5.502;2023-01-09T15:21:58;15.05;;;2.00;;
18610;SDS011;9435;52.122;5.502;2023-01-09T15:24:27;20.13;;;2.40;;
18610;SDS011;9435;52.122;5.502;2023-01-09T15:26:59;13.55;;;1.67;;
18610;SDS011;9435;52.122;5.502;2023-01-09T15:29:29;13.02;;;2.10;;
18610;SDS011;9435;52.122;5.502;2023-01-09T15:31:57;10.77;;;1.60;;
18610;SDS011;9435;52.122;5.502;2023-01-09T15:34:29;15.85;;;1.90;;
18610;SDS011;9435;52.122;5.502;2023-01-09T15:36:57;16.50;;;2.20;;
18610;SDS011;9435;52.122;5.502;2023-01-09T15:39:25;14.10;;;1.92;;